CheckWX is a tool to help pilots better visualize weather data.  It is not intended as a substitute for an official pre-flight weather briefing.

06:26:34 UTC

KHRT METAR
Hurlburt Field Airport
Mary Esther, Florida, USA
Current

31 mins ago

KHRT 050556Z AUTO 00000KT 10SM BKN150 19/15 A2991 RMK AO2 SLP130 60000 T01910148 10220 20191 402630121 58009 $
Observed
Apr-5 @ 05:56 UTC
Visibility
Flight Rules
VFR
Cloud Levels
  • Broken at 15,000' AGL
Dewpoint
15°C / 59°F
Humidity
78%
Altimeter
29.91" Hg
Pressure
1012.92 hPa
Previous

2 hours ago

KHRT 050456Z AUTO 00000KT 10SM CLR 19/14 A2992 RMK AO2 RAB05E27DZB27E28RAB28E30DZB30E47 SLP134 P0000 T01930143 $
Observed
Apr-5 @ 04:56 UTC
Visibility
Flight Rules
VFR
Cloud Levels
  • Clear skies
Temperature
19°C / 66°F
Dewpoint
14°C / 57°F
Humidity
73%
Altimeter
29.92" Hg
Pressure
1013.22 hPa
Current Rain
0.01"
Previous

2 hours ago

KHRT 050405Z AUTO 00000KT 10SM -RA FEW130 21/13 A2994 RMK AO2 RAB05 SLP140 $
Observed
Apr-5 @ 04:05 UTC
Visibility
Flight Rules
VFR
Conditions
Light Rain
Cloud Levels
  • Few at 13,000' AGL
Temperature
21°C / 70°F
Dewpoint
13°C / 55°F
Humidity
60%
Altimeter
29.94" Hg
Pressure
1013.92 hPa